Pagina principale
METAR-TAF:

METAR-TAF

Aeroporti :

Plant City, Florida, Stati Uniti

latitudine: 28-00-01N, longitudine: 082-09-51W, altezza: 47 m

Osservazione

Il bollettino è stato emesso 21 minuti fa, alle 23:55 UTC
Vento 7 kt da nord-est
Temperature 14°C
Umidità 82%
Pressione 1021 hPa
Visibilità: 16.1 km
Cielo coperto ad un'altezza di 2000 ft

METAR: KPCM 222355Z AUTO 04007KT 10SM OVC020 14/11 A3014 RMK AO2

Ora: 19:16 (00:16 UTC)


TAF: mancante

Osservazioni e previsioni meteorologiche di più di 4000 aeroporti (messaggi METAR e TAF).

Le stazioni disponibili sono rappresentate dai dischi gialli e rossi sulla carta.

Puntare il mouse per vedere il nome della stazione.

Clicca sopra per visualizzare le osservazioni e previsioni meteorologiche.

Per cambiare la mappa : fare clic sui pulsanti verdi con una croce nera per ingrandire, il pulsante verde con un trattino per diminuire, o sulla freccia verde per le mappe adiacenti.


METAR-TAF: